Maydelle, Texas
Current Conditions -  °F | °C
As of 5:55 PM on Sunday 21 Dec 2014 (Local Time) from KJSO Reporting Station
Overcast Overcast  
Wind Chill: 50°   Ceiling: 1700
Heat Index: 50°   Visibility: 10mi
Dew Point: 46°   Wind: 8mph
Humidity: 85%   Direction: 150°SSE
Pressure: 29.93"   Gusts: NA
Location:  31.8°N, 95.3°W
Report Text: KJSO 212355Z AUTO 15007KT 10SM OVC017 10/07 A2993 RMK AO2 T01000075
Loading
Personal Weather Stations






























Interactive Weather Map New forecast layout! Learn more

10-Day Weather Forecast

Advertisements
Track Severe Weather on mobile